Time;durP1;ratioP1;P1;durP2;ratioP2;P2;SDS_P1;SDS_P2;PMS_P1;PMS_P2;Temp;Humidity;BMP_temperature;BMP_pressure;BME280_temperature;BME280_humidity;BME280_pressure;Samples;Min_cycle;Max_cycle;Signal;HPM_P1;HPM_P2
2021/10/28 00:13:02;;;;;;;2.20;0.70;;;8.70;99.90;;;;;;5054570;28;20451;-69
2021/10/28 00:15:36;;;;;;;1.13;1.03;;;8.80;99.90;;;;;;5053385;28;20521;-70
2021/10/28 00:20:29;;;;;;;2.57;2.37;;;8.70;99.90;;;;;;5051951;28;20456;-70
2021/10/28 00:22:55;;;;;;;1.20;0.70;;;8.70;99.90;;;;;;5053491;28;20171;-70
2021/10/28 00:25:22;;;;;;;1.47;0.80;;;8.70;99.90;;;;;;5053977;28;20941;-70
2021/10/28 00:27:51;;;;;;;0.80;0.70;;;8.70;99.90;;;;;;5051321;28;20464;-69
2021/10/28 00:30:19;;;;;;;1.20;0.70;;;8.60;99.90;;;;;;5047246;28;20425;-69
2021/10/28 00:32:45;;;;;;;0.70;0.50;;;8.70;99.90;;;;;;5054254;28;20433;-70
2021/10/28 00:35:11;;;;;;;2.60;1.40;;;8.60;99.90;;;;;;5054418;28;20470;-70
2021/10/28 00:37:37;;;;;;;0.70;0.50;;;8.60;99.90;;;;;;5054620;28;20832;-71
2021/10/28 00:40:06;;;;;;;1.53;1.33;;;8.50;99.90;;;;;;5046570;28;20472;-70
2021/10/28 00:42:33;;;;;;;3.63;2.40;;;8.50;99.90;;;;;;5052957;28;20276;-71
2021/10/28 00:44:59;;;;;;;0.80;0.60;;;8.50;99.90;;;;;;5053668;28;20794;-70
2021/10/28 00:47:24;;;;;;;2.30;1.93;;;8.60;99.90;;;;;;5052332;28;20441;-70
2021/10/28 00:49:50;;;;;;;0.90;0.70;;;8.50;99.90;;;;;;5049293;28;20598;-71
2021/10/28 00:52:15;;;;;;;1.33;1.00;;;8.50;99.90;;;;;;5050405;28;20179;-69
2021/10/28 00:54:42;;;;;;;0.70;0.50;;;8.50;99.90;;;;;;5052563;28;20175;-70
2021/10/28 00:57:07;;;;;;;1.73;0.70;;;8.50;99.90;;;;;;5053844;28;20206;-70
2021/10/28 00:59:33;;;;;;;1.03;0.83;;;8.40;99.90;;;;;;5052382;28;20410;-70
2021/10/28 01:01:58;;;;;;;1.57;1.47;;;8.40;99.90;;;;;;5051127;28;20239;-69
2021/10/28 01:04:24;;;;;;;3.20;0.90;;;8.40;99.90;;;;;;5052082;28;20622;-70
2021/10/28 01:06:50;;;;;;;0.70;0.60;;;8.30;99.90;;;;;;5051926;28;20234;-70
2021/10/28 01:09:16;;;;;;;0.73;0.70;;;8.30;99.90;;;;;;5052713;28;20175;-70
2021/10/28 01:11:41;;;;;;;5.93;1.07;;;8.30;99.90;;;;;;5053223;28;20332;-71
2021/10/28 01:14:07;;;;;;;1.07;1.07;;;8.40;99.90;;;;;;5052773;28;20190;-70
2021/10/28 01:16:32;;;;;;;1.13;0.80;;;8.40;99.90;;;;;;5049648;28;20296;-70
2021/10/28 01:18:58;;;;;;;1.80;1.70;;;8.40;99.90;;;;;;5052904;28;20228;-70
2021/10/28 01:21:24;;;;;;;1.60;1.50;;;8.40;99.90;;;;;;5050942;28;20207;-70
2021/10/28 01:23:49;;;;;;;1.07;0.97;;;8.40;99.90;;;;;;5053151;28;20653;-70
2021/10/28 01:26:17;;;;;;;0.70;0.60;;;8.30;99.90;;;;;;5052301;28;20328;-69
2021/10/28 01:28:58;;;;;;;1.23;1.13;;;8.40;99.90;;;;;;5050191;28;20246;-70
2021/10/28 01:31:26;;;;;;;3.33;1.37;;;8.40;99.90;;;;;;5050227;28;20432;-70
2021/10/28 01:33:54;;;;;;;0.70;0.50;;;8.40;99.90;;;;;;5052987;28;20432;-70
2021/10/28 01:36:22;;;;;;;0.70;0.50;;;8.30;99.90;;;;;;5050190;28;20457;-70
2021/10/28 01:38:48;;;;;;;0.80;0.70;;;8.40;99.90;;;;;;5053702;28;20417;-69
2021/10/28 01:41:15;;;;;;;1.97;1.83;;;8.30;99.90;;;;;;5046401;28;20457;-71
2021/10/28 01:43:42;;;;;;;0.70;0.50;;;8.20;99.90;;;;;;5053141;28;20417;-71
2021/10/28 01:46:07;;;;;;;1.10;1.00;;;8.30;99.90;;;;;;5052827;28;20425;-70
2021/10/28 01:48:36;;;;;;;0.70;0.70;;;8.20;99.90;;;;;;5051584;28;20438;-71
2021/10/28 01:51:02;;;;;;;1.33;1.23;;;8.20;99.90;;;;;;5053082;28;20664;-70
2021/10/28 01:53:28;;;;;;;0.73;0.70;;;8.20;99.90;;;;;;5051353;28;20433;-70
2021/10/28 01:55:53;;;;;;;1.33;1.23;;;8.20;99.90;;;;;;5051498;28;20484;-69
2021/10/28 01:58:22;;;;;;;6.07;1.97;;;8.20;99.90;;;;;;5051530;28;20236;-70
2021/10/28 02:00:49;;;;;;;3.33;0.80;;;8.10;99.90;;;;;;5050134;28;20195;-69
2021/10/28 02:03:14;;;;;;;0.70;0.50;;;8.10;99.90;;;;;;5050960;28;20429;-69
2021/10/28 02:05:40;;;;;;;1.00;0.70;;;8.10;99.90;;;;;;5051010;28;20930;-70
2021/10/28 02:08:05;;;;;;;1.40;1.17;;;8.10;99.90;;;;;;5050775;28;20179;-70
2021/10/28 02:10:31;;;;;;;0.70;0.50;;;8.10;99.90;;;;;;5052798;28;20762;-70
2021/10/28 02:12:57;;;;;;;1.73;1.53;;;8.10;99.90;;;;;;5050719;28;20182;-70
2021/10/28 02:15:23;;;;;;;1.30;1.13;;;8.10;99.90;;;;;;5049693;28;20178;-70
2021/10/28 02:17:49;;;;;;;0.70;0.50;;;8.10;99.90;;;;;;5051142;28;20205;-70
2021/10/28 02:20:16;;;;;;;10.13;2.43;;;8.10;99.90;;;;;;5049166;28;20831;-69
2021/10/28 02:22:42;;;;;;;3.20;2.30;;;8.10;99.90;;;;;;5051797;28;20171;-71
2021/10/28 02:25:10;;;;;;;1.20;1.10;;;8.10;99.90;;;;;;5051756;28;20444;-69
2021/10/28 02:27:36;;;;;;;1.17;1.07;;;8.20;99.90;;;;;;5034265;28;20445;-69
2021/10/28 02:30:02;;;;;;;0.80;0.70;;;8.10;99.90;;;;;;5051266;28;20436;-71
2021/10/28 02:32:28;;;;;;;1.17;1.07;;;8.10;99.90;;;;;;5048304;28;20429;-69
2021/10/28 02:34:53;;;;;;;42.33;2.00;;;8.20;99.90;;;;;;5052318;28;20475;-69
2021/10/28 02:37:19;;;;;;;1.10;0.70;;;8.10;99.90;;;;;;5051407;28;20256;-70
2021/10/28 02:39:47;;;;;;;0.80;0.67;;;8.20;99.90;;;;;;5051143;28;20202;-70
2021/10/28 02:42:14;;;;;;;3.23;1.03;;;8.20;99.90;;;;;;5051223;28;20544;-70
2021/10/28 02:44:39;;;;;;;1.10;1.00;;;8.20;99.90;;;;;;5052084;28;20418;-70
2021/10/28 02:47:05;;;;;;;0.70;0.50;;;8.30;99.90;;;;;;5052132;28;20496;-69
2021/10/28 02:49:31;;;;;;;0.80;0.80;;;8.40;99.90;;;;;;5050998;28;20221;-70
2021/10/28 02:51:56;;;;;;;1.23;1.13;;;8.30;99.90;;;;;;5051216;28;20187;-70
2021/10/28 02:54:23;;;;;;;0.90;0.90;;;8.40;99.90;;;;;;5051951;28;20186;-70
2021/10/28 02:56:49;;;;;;;0.70;0.50;;;8.50;99.90;;;;;;5043315;28;20619;-71
2021/10/28 02:59:15;;;;;;;0.80;0.80;;;8.60;99.90;;;;;;5050426;28;20511;-68
2021/10/28 03:01:47;;;;;;;0.90;0.90;;;8.60;99.90;;;;;;5049337;28;20561;-69
2021/10/28 03:04:14;;;;;;;0.80;0.60;;;8.60;99.90;;;;;;5051209;28;20457;-69
2021/10/28 03:06:41;;;;;;;2.20;1.60;;;8.70;99.90;;;;;;5051597;28;20443;-70
2021/10/28 03:09:13;;;;;;;8.20;1.27;;;8.60;99.90;;;;;;5049990;28;20583;-70
2021/10/28 03:11:41;;;;;;;0.80;0.80;;;8.70;99.90;;;;;;5051211;28;20433;-70
2021/10/28 03:14:07;;;;;;;1.53;1.43;;;8.70;99.90;;;;;;5049942;28;20464;-70
2021/10/28 03:19:36;;;;;;;1.10;0.93;;;8.80;99.90;;;;;;5044523;28;20456;-71
2021/10/28 03:27:31;;;;;;;4.10;2.10;;;8.90;99.90;;;;;;5050162;28;20988;-69
2021/10/28 03:29:57;;;;;;;0.90;0.70;;;8.90;99.90;;;;;;5051736;28;20794;-69
2021/10/28 03:32:24;;;;;;;1.00;1.00;;;8.90;99.90;;;;;;5047918;28;20421;-71
2021/10/28 03:34:51;;;;;;;0.80;0.70;;;8.90;99.90;;;;;;5050379;28;20540;-69
2021/10/28 03:56:14;;;;;;;2.40;1.43;;;8.90;99.90;;;;;;5036922;28;20849;-69
2021/10/28 04:19:51;;;;;;;1.43;0.70;;;9.00;99.90;;;;;;5050213;28;20432;-70
2021/10/28 04:30:21;;;;;;;3.67;3.13;;;9.10;99.90;;;;;;5052292;28;20428;-70
2021/10/28 04:32:48;;;;;;;0.90;0.63;;;9.10;99.90;;;;;;5051613;28;20425;-70
2021/10/28 04:35:13;;;;;;;1.00;1.00;;;9.10;99.90;;;;;;5051754;28;20786;-70
2021/10/28 04:37:39;;;;;;;0.70;0.50;;;9.10;99.90;;;;;;5038819;28;20502;-70
2021/10/28 04:40:07;;;;;;;0.93;0.90;;;9.10;99.90;;;;;;5052944;28;20262;-70
2021/10/28 04:42:33;;;;;;;1.57;1.10;;;9.10;99.90;;;;;;5053347;28;20421;-70
2021/10/28 04:44:58;;;;;;;2.43;1.33;;;9.20;99.90;;;;;;5053013;28;20774;-71
2021/10/28 04:47:24;;;;;;;4.70;2.50;;;9.20;99.90;;;;;;5053385;28;20277;-70
2021/10/28 04:49:49;;;;;;;2.97;1.47;;;9.20;99.90;;;;;;5053034;28;20647;-71
2021/10/28 04:52:15;;;;;;;0.70;0.50;;;9.20;99.90;;;;;;5054367;28;20178;-70
2021/10/28 04:54:42;;;;;;;5.27;1.57;;;9.30;99.90;;;;;;5054464;28;20175;-71
2021/10/28 04:57:07;;;;;;;0.70;0.70;;;9.30;99.90;;;;;;5054025;28;20317;-70
2021/10/28 04:59:33;;;;;;;2.00;1.90;;;9.20;99.90;;;;;;5052782;28;20516;-71
2021/10/28 05:01:58;;;;;;;2.33;2.13;;;9.30;99.90;;;;;;5051497;28;20606;-71
2021/10/28 05:04:25;;;;;;;5.43;1.57;;;9.30;99.90;;;;;;5052892;28;20175;-71
2021/10/28 05:06:51;;;;;;;1.93;1.83;;;9.30;99.90;;;;;;5053834;28;20191;-70
2021/10/28 05:09:18;;;;;;;2.70;2.20;;;9.20;99.90;;;;;;5062076;28;20461;-70
2021/10/28 05:11:47;;;;;;;1.13;1.13;;;9.30;99.90;;;;;;5051565;28;20874;-70
2021/10/28 05:14:13;;;;;;;0.83;0.80;;;9.20;99.90;;;;;;5051230;28;20793;-70
2021/10/28 05:16:39;;;;;;;1.27;1.17;;;9.30;99.90;;;;;;5050925;28;20471;-69
2021/10/28 05:19:04;;;;;;;2.50;1.50;;;9.30;99.90;;;;;;5048892;28;20538;-69
2021/10/28 05:21:30;;;;;;;2.07;1.37;;;9.30;99.90;;;;;;5051643;28;20456;-70
2021/10/28 05:23:55;;;;;;;2.03;1.93;;;9.30;99.90;;;;;;5053983;28;20175;-70
2021/10/28 05:26:21;;;;;;;1.77;1.67;;;9.30;99.90;;;;;;5051414;28;20274;-70
2021/10/28 05:28:47;;;;;;;2.50;0.80;;;9.30;99.90;;;;;;5051583;28;20177;-70
2021/10/28 05:31:13;;;;;;;1.33;1.23;;;9.20;99.90;;;;;;5041576;28;20267;-71
2021/10/28 05:33:39;;;;;;;3.23;2.20;;;9.30;99.90;;;;;;5052870;28;20807;-69
2021/10/28 05:36:05;;;;;;;2.73;2.53;;;9.30;99.90;;;;;;5053195;28;20277;-69
2021/10/28 05:38:30;;;;;;;1.57;1.47;;;9.30;99.90;;;;;;5051401;28;20183;-70
2021/10/28 05:40:56;;;;;;;2.30;0.80;;;9.30;99.90;;;;;;5051338;28;20664;-71
2021/10/28 05:43:21;;;;;;;1.77;1.67;;;9.40;99.90;;;;;;5051526;28;20179;-71
2021/10/28 05:45:49;;;;;;;4.30;1.37;;;9.50;99.90;;;;;;5052573;28;20310;-70
2021/10/28 05:48:14;;;;;;;0.70;0.70;;;9.50;99.90;;;;;;5052587;28;20171;-70
2021/10/28 05:50:41;;;;;;;0.90;0.70;;;9.30;99.90;;;;;;5050719;28;20950;-70
2021/10/28 05:53:08;;;;;;;4.27;1.17;;;9.30;99.90;;;;;;5051765;28;20179;-71
2021/10/28 05:55:34;;;;;;;0.80;0.60;;;9.20;99.90;;;;;;5051152;28;20806;-71
2021/10/28 05:57:59;;;;;;;3.77;3.60;;;9.10;99.90;;;;;;5050678;28;20450;-70
2021/10/28 06:00:25;;;;;;;7.00;1.20;;;9.10;99.90;;;;;;5060606;28;20839;-70
2021/10/28 06:02:51;;;;;;;0.70;0.50;;;9.10;99.90;;;;;;5051840;28;20244;-70
2021/10/28 06:05:18;;;;;;;9.47;2.20;;;9.00;99.90;;;;;;5052791;28;20278;-70
2021/10/28 06:07:44;;;;;;;0.80;0.73;;;9.00;99.90;;;;;;5048514;28;20449;-70
2021/10/28 06:10:16;;;;;;;0.70;0.50;;;9.00;99.90;;;;;;5048496;28;20876;-70
2021/10/28 06:12:48;;;;;;;0.70;0.50;;;9.00;99.90;;;;;;5052313;28;20433;-70
2021/10/28 06:15:14;;;;;;;0.83;0.80;;;9.10;99.90;;;;;;5049083;28;20443;-70
2021/10/28 06:17:56;;;;;;;0.70;0.50;;;9.10;99.90;;;;;;5040989;28;20461;-70
2021/10/28 06:20:22;;;;;;;0.70;0.60;;;9.10;99.90;;;;;;5050245;28;20448;-69
2021/10/28 06:22:48;;;;;;;1.77;1.00;;;9.20;99.90;;;;;;5052138;28;20988;-69
2021/10/28 06:25:14;;;;;;;2.40;2.20;;;9.10;99.90;;;;;;5052169;28;20429;-69
2021/10/28 06:27:40;;;;;;;0.90;0.90;;;9.20;99.90;;;;;;5052505;28;20433;-69
2021/10/28 06:30:06;;;;;;;1.60;1.50;;;9.20;99.90;;;;;;5049454;28;20428;-70
2021/10/28 06:32:32;;;;;;;0.70;0.50;;;9.20;99.90;;;;;;5050711;28;20422;-70
2021/10/28 06:35:00;;;;;;;0.70;0.60;;;9.20;99.90;;;;;;5048433;28;20495;-71
2021/10/28 06:37:27;;;;;;;1.17;1.10;;;9.20;99.90;;;;;;5052919;28;20442;-69
2021/10/28 06:39:53;;;;;;;0.70;0.50;;;9.30;99.90;;;;;;5051068;28;20425;-71
2021/10/28 06:42:18;;;;;;;2.20;2.10;;;9.30;99.90;;;;;;5052391;28;20453;-70
2021/10/28 06:44:44;;;;;;;2.13;1.30;;;9.20;99.90;;;;;;5051771;28;20183;-70
2021/10/28 06:47:09;;;;;;;1.70;1.60;;;9.30;99.90;;;;;;5050801;28;20195;-71
2021/10/28 06:49:42;;;;;;;3.63;1.57;;;9.20;99.90;;;;;;5048208;28;20632;-69
2021/10/28 06:52:11;;;;;;;1.33;1.23;;;9.20;99.90;;;;;;5049516;28;20186;-70
2021/10/28 06:54:38;;;;;;;1.53;1.43;;;9.30;99.90;;;;;;5050554;28;20437;-69
2021/10/28 07:02:35;;;;;;;0.70;0.60;;;9.40;99.90;;;;;;5048095;28;20455;-68
2021/10/28 07:05:03;;;;;;;0.70;0.50;;;9.30;99.90;;;;;;5050791;28;20429;-69
2021/10/28 07:07:30;;;;;;;1.33;0.80;;;9.40;99.90;;;;;;5049219;28;20837;-70
2021/10/28 07:15:07;;;;;;;0.70;0.60;;;9.50;99.90;;;;;;5049886;28;20437;-70
2021/10/28 07:17:39;;;;;;;1.23;1.13;;;9.60;99.90;;;;;;5046316;28;20460;-69
2021/10/28 07:20:25;;;;;;;0.83;0.83;;;9.60;99.90;;;;;;5048307;28;20524;-71
2021/10/28 08:13:53;;;;;;;1.10;0.73;;;12.70;99.90;;;;;;5053006;28;20424;-69
2021/10/28 08:21:48;;;;;;;4.63;2.13;;;14.30;99.90;;;;;;5053170;28;20966;-71
2021/10/28 08:29:38;;;;;;;1.20;1.07;;;14.30;99.90;;;;;;5052415;28;20428;-67
2021/10/28 08:32:06;;;;;;;9.20;2.33;;;15.20;99.90;;;;;;5053614;28;20516;-69
2021/10/28 08:34:36;;;;;;;1.57;1.43;;;14.70;99.90;;;;;;5052370;28;20452;-68
2021/10/28 08:37:17;;;;;;;5.73;2.70;;;14.90;99.90;;;;;;5055226;28;20468;-67
2021/10/28 08:39:49;;;;;;;7.40;2.03;;;14.60;99.90;;;;;;5053031;28;20422;-68
2021/10/28 08:42:20;;;;;;;1.93;1.60;;;15.30;99.90;;;;;;5050365;28;20452;-68
2021/10/28 08:44:52;;;;;;;2.00;1.90;;;15.10;99.90;;;;;;5052334;28;20444;-71
2021/10/28 08:47:19;;;;;;;1.27;1.17;;;15.70;99.90;;;;;;5051563;28;20526;-67
2021/10/28 09:24:44;;;;;;;1.90;1.33;;;14.90;99.90;;;;;;5054008;28;20980;-67
2021/10/28 09:27:21;;;;;;;1.47;1.37;;;15.40;99.90;;;;;;5053401;28;20519;-68
2021/10/28 09:44:33;;;;;;;7.23;2.13;;;16.20;99.90;;;;;;5053284;28;20467;-67
2021/10/28 09:51:42;;;;;;;1.73;1.40;;;16.50;99.90;;;;;;5053104;28;20499;-66
2021/10/28 09:54:22;;;;;;;1.67;1.50;;;16.40;99.90;;;;;;5053335;28;20413;-66
2021/10/28 09:59:46;;;;;;;3.10;2.10;;;17.10;99.90;;;;;;5047482;28;20444;-67
2021/10/28 10:02:18;;;;;;;4.63;1.93;;;17.80;99.90;;;;;;5052314;28;21142;-69
2021/10/28 10:04:46;;;;;;;4.50;1.60;;;18.50;99.90;;;;;;5052994;28;20902;-72
2021/10/28 10:07:13;;;;;;;2.67;1.73;;;19.80;99.90;;;;;;5053066;28;20437;-67
2021/10/28 10:09:39;;;;;;;2.30;1.50;;;20.70;99.90;;;;;;5052623;28;20778;-67
2021/10/28 10:12:07;;;;;;;2.60;2.10;;;21.50;99.90;;;;;;5052742;28;20421;-67
2021/10/28 10:14:38;;;;;;;2.70;1.90;;;22.30;99.90;;;;;;5052258;28;20475;-67
2021/10/28 10:17:05;;;;;;;2.00;1.70;;;22.60;99.90;;;;;;5052527;28;20996;-67
2021/10/28 10:19:33;;;;;;;4.63;2.00;;;23.10;99.30;;;;;;5051461;28;20413;-68
2021/10/28 10:22:18;;;;;;;1.93;1.10;;;22.20;99.90;;;;;;5051418;28;20453;-66
2021/10/28 10:30:23;;;;;;;1.60;1.50;;;22.60;98.40;;;;;;5053086;28;20466;-66
2021/10/28 11:32:55;;;;;;;6.63;2.03;;;24.60;72.50;;;;;;5050847;28;20942;-66
2021/10/28 12:50:05;;;;;;;2.20;2.00;;;22.20;99.20;;;;;;5054100;28;20421;-66
2021/10/28 12:55:48;;;;;;;3.70;1.70;;;21.30;99.90;;;;;;5054091;28;20784;-67
2021/10/28 13:49:48;;;;;;;3.57;1.50;;;22.00;99.90;;;;;;5053147;28;20942;-66
2021/10/28 14:00:27;;;;;;;1.53;1.30;;;20.00;99.90;;;;;;5049360;28;20933;-67
2021/10/28 14:37:40;;;;;;;1.50;1.40;;;18.70;99.90;;;;;;5052704;28;20445;-68
2021/10/28 15:35:11;;;;;;;1.17;1.07;;;17.40;99.90;;;;;;5051733;28;20220;-69
2021/10/28 16:01:10;;;;;;;4.50;1.83;;;14.20;99.90;;;;;;5051800;28;20404;-69
2021/10/28 16:22:45;;;;;;;2.67;2.40;;;13.10;99.90;;;;;;5053502;28;20837;-68
2021/10/28 16:25:11;;;;;;;1.37;1.27;;;12.90;99.90;;;;;;5054990;28;20397;-68
2021/10/28 16:27:37;;;;;;;1.93;1.23;;;12.90;99.90;;;;;;5070306;28;20185;-68
2021/10/28 16:30:04;;;;;;;1.73;1.63;;;12.80;99.90;;;;;;5055241;28;20689;-68
2021/10/28 16:32:31;;;;;;;1.47;1.37;;;12.70;99.90;;;;;;5054921;28;20409;-68
2021/10/28 16:34:57;;;;;;;1.60;1.50;;;12.60;99.90;;;;;;5054526;28;20436;-68
2021/10/28 16:37:25;;;;;;;6.53;2.40;;;12.40;99.90;;;;;;5054788;28;20491;-68
2021/10/28 16:39:51;;;;;;;1.03;0.93;;;12.40;99.90;;;;;;5055163;28;20171;-67
2021/10/28 16:42:17;;;;;;;2.97;1.30;;;12.30;99.90;;;;;;5054814;28;20528;-69
2021/10/28 16:44:44;;;;;;;3.67;1.50;;;12.20;99.90;;;;;;5054965;28;20409;-67
2021/10/28 16:47:10;;;;;;;1.33;1.23;;;12.10;99.90;;;;;;5053426;28;20182;-68
2021/10/28 16:49:35;;;;;;;1.80;1.63;;;12.00;99.90;;;;;;5054553;28;20424;-68
2021/10/28 16:52:01;;;;;;;3.33;1.77;;;11.90;99.90;;;;;;5069465;28;20177;-69
2021/10/28 16:54:27;;;;;;;2.50;1.40;;;11.90;99.90;;;;;;5054740;28;20171;-68
2021/10/28 16:56:52;;;;;;;1.90;1.00;;;11.80;99.90;;;;;;5054139;28;20194;-68
2021/10/28 16:59:18;;;;;;;4.80;2.10;;;11.80;99.90;;;;;;5054606;28;20536;-68
2021/10/28 17:01:44;;;;;;;0.80;0.70;;;11.80;99.90;;;;;;5054271;28;20199;-68
2021/10/28 17:04:09;;;;;;;2.53;2.33;;;11.70;99.90;;;;;;5054303;28;20166;-68
2021/10/28 17:06:35;;;;;;;1.33;1.23;;;11.60;99.90;;;;;;5052580;28;20187;-68
2021/10/28 17:09:06;;;;;;;5.17;4.20;;;11.60;99.90;;;;;;5054277;28;20178;-68
2021/10/28 17:11:32;;;;;;;4.33;2.00;;;11.50;99.90;;;;;;5053652;28;20425;-68
2021/10/28 17:13:58;;;;;;;2.13;1.60;;;11.40;99.90;;;;;;5054451;28;20480;-68
2021/10/28 17:16:24;;;;;;;1.37;1.17;;;11.40;99.90;;;;;;5054017;28;20210;-68
2021/10/28 17:18:49;;;;;;;1.43;1.33;;;11.30;99.90;;;;;;5053109;28;20175;-68
2021/10/28 17:21:15;;;;;;;3.20;2.00;;;11.20;99.90;;;;;;5054168;28;20456;-68
2021/10/28 17:23:43;;;;;;;2.30;1.73;;;11.00;99.90;;;;;;5054425;28;20236;-68
2021/10/28 17:26:11;;;;;;;3.37;3.07;;;11.00;99.90;;;;;;5053915;28;20183;-68
2021/10/28 17:28:37;;;;;;;3.10;1.97;;;10.90;99.90;;;;;;5069833;28;20467;-69
2021/10/28 17:31:05;;;;;;;1.30;1.20;;;10.80;99.90;;;;;;5054180;28;20406;-69
2021/10/28 17:33:31;;;;;;;2.87;2.57;;;10.80;99.90;;;;;;5052994;28;20414;-69
2021/10/28 17:35:58;;;;;;;1.77;1.67;;;10.90;99.90;;;;;;5053535;28;20437;-69
2021/10/28 17:38:25;;;;;;;1.47;1.37;;;10.70;99.90;;;;;;5053962;28;20918;-68
2021/10/28 17:40:51;;;;;;;0.80;0.70;;;10.80;99.90;;;;;;5053419;28;20449;-69
2021/10/28 17:43:19;;;;;;;0.77;0.73;;;10.80;99.90;;;;;;5053968;28;20429;-69
2021/10/28 17:45:46;;;;;;;2.30;1.53;;;10.80;99.90;;;;;;5053218;28;20714;-68
2021/10/28 17:48:12;;;;;;;3.93;1.80;;;10.70;99.90;;;;;;5053666;28;20504;-68
2021/10/28 17:50:38;;;;;;;2.50;1.10;;;10.70;99.90;;;;;;5069048;28;20943;-69
2021/10/28 17:53:04;;;;;;;4.40;1.47;;;10.70;99.90;;;;;;5053284;28;20198;-68
2021/10/28 17:55:30;;;;;;;3.27;1.27;;;10.70;99.90;;;;;;5053178;28;20786;-69
2021/10/28 17:57:55;;;;;;;1.40;1.17;;;10.60;99.90;;;;;;5053528;28;20440;-68
2021/10/28 18:00:22;;;;;;;2.80;1.97;;;10.50;99.90;;;;;;5053470;28;20249;-68
2021/10/28 18:02:49;;;;;;;2.80;1.77;;;10.50;99.90;;;;;;5048505;28;20238;-69
2021/10/28 18:05:15;;;;;;;2.07;1.97;;;10.40;99.90;;;;;;5052770;28;20413;-68
2021/10/28 18:07:42;;;;;;;2.30;2.10;;;10.40;99.90;;;;;;5076375;28;20434;-69
2021/10/28 18:10:08;;;;;;;7.20;2.27;;;10.40;99.90;;;;;;5073556;28;20417;-69
2021/10/28 18:12:38;;;;;;;1.30;1.20;;;10.40;99.90;;;;;;5070098;28;20963;-69
2021/10/28 18:15:06;;;;;;;3.20;3.00;;;10.30;99.90;;;;;;5048872;28;20175;-68
2021/10/28 18:17:32;;;;;;;3.07;2.83;;;10.30;99.90;;;;;;5033342;28;20529;-68
2021/10/28 18:19:58;;;;;;;2.13;1.13;;;10.30;99.90;;;;;;5050088;28;20825;-68
2021/10/28 18:22:24;;;;;;;1.77;1.67;;;10.30;99.90;;;;;;5052460;28;20488;-69
2021/10/28 18:24:49;;;;;;;1.33;1.23;;;10.20;99.90;;;;;;5052893;28;20437;-69
2021/10/28 18:27:15;;;;;;;6.20;1.27;;;10.20;99.90;;;;;;5053215;28;20183;-68
2021/10/28 18:29:41;;;;;;;1.40;1.27;;;10.10;99.90;;;;;;5052654;28;20679;-69
2021/10/28 18:32:07;;;;;;;1.07;0.97;;;10.10;99.90;;;;;;5048069;28;20259;-68
2021/10/28 18:34:34;;;;;;;2.43;1.70;;;10.10;99.90;;;;;;5032941;28;20163;-69
2021/10/28 18:37:00;;;;;;;0.80;0.80;;;10.00;99.90;;;;;;5031579;28;20438;-68
2021/10/28 18:39:25;;;;;;;5.23;4.87;;;10.00;99.90;;;;;;5041875;28;20478;-67
2021/10/28 18:41:52;;;;;;;0.90;0.80;;;10.00;99.90;;;;;;5052790;28;20197;-69
2021/10/28 18:44:18;;;;;;;0.80;0.80;;;10.00;99.90;;;;;;5052550;28;20186;-69
2021/10/28 18:46:45;;;;;;;6.90;2.63;;;10.00;99.90;;;;;;5052252;28;20418;-68
2021/10/28 18:49:11;;;;;;;3.13;3.03;;;9.90;99.90;;;;;;5047536;28;20163;-68
2021/10/28 18:51:38;;;;;;;0.70;0.60;;;9.90;99.90;;;;;;5052704;28;20466;-67
2021/10/28 18:54:06;;;;;;;1.20;1.00;;;9.90;99.90;;;;;;5052667;28;20167;-67
2021/10/28 18:56:32;;;;;;;1.20;1.10;;;9.80;99.90;;;;;;5051604;28;20856;-68
2021/10/28 18:58:58;;;;;;;1.07;1.00;;;9.80;99.90;;;;;;5052064;28;20508;-68
2021/10/28 19:01:26;;;;;;;2.90;2.27;;;9.80;99.90;;;;;;5052317;28;21041;-69
2021/10/28 19:03:53;;;;;;;1.40;1.30;;;9.80;99.90;;;;;;5051820;28;20171;-68
2021/10/28 19:06:19;;;;;;;1.90;1.80;;;9.70;99.90;;;;;;5045935;28;20430;-68
2021/10/28 19:08:45;;;;;;;0.80;0.60;;;9.70;99.90;;;;;;5046633;28;20467;-68
2021/10/28 19:11:12;;;;;;;4.30;3.70;;;9.70;99.90;;;;;;5052455;28;20171;-69
2021/10/28 19:13:40;;;;;;;1.20;1.00;;;9.60;99.90;;;;;;5050715;28;20420;-68
2021/10/28 19:16:06;;;;;;;1.77;1.50;;;9.60;99.90;;;;;;5050684;28;20810;-68
2021/10/28 19:18:32;;;;;;;3.67;1.37;;;9.50;99.90;;;;;;5051663;28;20436;-68
2021/10/28 19:20:58;;;;;;;2.03;1.10;;;9.50;99.90;;;;;;5050687;28;20453;-68
2021/10/28 19:23:24;;;;;;;1.73;1.63;;;9.40;99.90;;;;;;5051899;28;20406;-68
2021/10/28 19:25:49;;;;;;;1.17;0.80;;;9.40;99.90;;;;;;5051510;28;20432;-68
2021/10/28 19:28:16;;;;;;;0.90;0.60;;;9.30;99.90;;;;;;5050788;28;20167;-68
2021/10/28 19:30:56;;;;;;;0.97;0.87;;;9.30;99.90;;;;;;5052002;28;20528;-67
2021/10/28 19:33:36;;;;;;;2.13;2.00;;;9.30;99.90;;;;;;5051185;28;20416;-68
2021/10/28 19:36:04;;;;;;;1.10;1.00;;;9.20;99.90;;;;;;5051700;28;20413;-68
2021/10/28 19:41:47;;;;;;;1.10;1.00;;;9.30;99.90;;;;;;5052059;28;20459;-68
2021/10/28 19:46:59;;;;;;;2.67;2.40;;;9.20;99.90;;;;;;5051053;28;20435;-68
2021/10/28 19:49:25;;;;;;;2.50;2.40;;;9.10;99.90;;;;;;5051584;28;20413;-68
2021/10/28 19:51:51;;;;;;;0.77;0.67;;;9.10;99.90;;;;;;5050967;28;20421;-69
2021/10/28 19:54:17;;;;;;;1.20;1.13;;;9.10;99.90;;;;;;5051819;28;20163;-68
2021/10/28 19:56:44;;;;;;;1.20;1.10;;;9.20;99.90;;;;;;5050596;28;20210;-68
2021/10/28 19:59:12;;;;;;;0.70;0.60;;;9.20;99.90;;;;;;5055769;28;20170;-69
2021/10/28 20:02:00;;;;;;;1.73;1.63;;;9.20;99.90;;;;;;5055331;28;20507;-68
2021/10/28 20:04:34;;;;;;;1.03;0.77;;;9.20;99.90;;;;;;5055658;28;20504;-69
2021/10/28 20:20:35;;;;;;;2.40;1.73;;;9.20;99.90;;;;;;5055344;28;20427;-68
2021/10/28 20:23:00;;;;;;;0.80;0.80;;;9.20;99.90;;;;;;5054772;28;20479;-69
2021/10/28 20:25:28;;;;;;;4.00;1.80;;;9.10;99.90;;;;;;5055252;28;20878;-68
2021/10/28 20:27:57;;;;;;;1.60;1.50;;;9.10;99.90;;;;;;5055092;28;20218;-69
2021/10/28 20:30:33;;;;;;;2.47;2.03;;;9.10;99.90;;;;;;5055292;28;20402;-68
2021/10/28 20:32:59;;;;;;;2.30;1.23;;;9.00;99.90;;;;;;5054891;28;20420;-68
2021/10/28 20:37:56;;;;;;;4.03;3.40;;;8.90;99.90;;;;;;5054969;28;20845;-68
2021/10/28 20:40:22;;;;;;;1.80;1.67;;;8.90;99.90;;;;;;5055204;28;20960;-67
2021/10/28 20:42:49;;;;;;;1.27;1.17;;;8.80;99.90;;;;;;5053349;28;20819;-68
2021/10/28 20:45:24;;;;;;;1.73;1.30;;;8.80;99.90;;;;;;5053415;28;20978;-68
2021/10/28 20:47:52;;;;;;;1.23;1.13;;;8.90;99.90;;;;;;5054253;28;20943;-68
2021/10/28 20:50:23;;;;;;;0.70;0.57;;;8.90;99.90;;;;;;5055060;28;20765;-68
2021/10/28 20:52:49;;;;;;;1.73;1.53;;;8.90;99.90;;;;;;5054684;28;20425;-67
2021/10/28 20:55:15;;;;;;;1.30;1.17;;;8.90;99.90;;;;;;5052670;28;20425;-67
2021/10/28 20:57:40;;;;;;;0.80;0.80;;;8.80;99.90;;;;;;5054375;28;20463;-68
2021/10/28 21:00:09;;;;;;;1.30;0.90;;;8.80;99.90;;;;;;5054248;28;20433;-68
2021/10/28 21:02:37;;;;;;;2.07;1.90;;;8.80;99.90;;;;;;5053467;28;20827;-68
2021/10/28 21:05:09;;;;;;;4.93;3.50;;;8.70;99.90;;;;;;5054156;28;20506;-67
2021/10/28 21:07:35;;;;;;;1.07;1.00;;;8.70;99.90;;;;;;5054527;28;20432;-68
2021/10/28 21:10:01;;;;;;;1.10;1.10;;;8.70;99.90;;;;;;5054374;28;20393;-66
2021/10/28 21:12:26;;;;;;;2.10;1.57;;;8.60;99.90;;;;;;5054354;28;20640;-67
2021/10/28 21:14:52;;;;;;;1.90;1.80;;;8.60;99.90;;;;;;5053959;28;20640;-69
2021/10/28 21:17:17;;;;;;;2.20;1.57;;;8.60;99.90;;;;;;5053375;28;20674;-68
2021/10/28 21:19:43;;;;;;;2.80;2.00;;;8.60;99.90;;;;;;5054338;28;20689;-69
2021/10/28 21:22:08;;;;;;;1.13;0.83;;;8.60;99.90;;;;;;5069347;28;20205;-67
2021/10/28 21:24:38;;;;;;;2.10;0.83;;;8.60;99.90;;;;;;5053868;28;20177;-68
2021/10/28 21:27:04;;;;;;;8.17;0.90;;;8.60;99.90;;;;;;5069339;28;20225;-67
2021/10/28 21:29:30;;;;;;;1.97;1.13;;;8.60;99.90;;;;;;5053726;28;20449;-68
2021/10/28 21:31:55;;;;;;;1.43;1.37;;;8.50;99.90;;;;;;5054160;28;20409;-68
2021/10/28 21:34:21;;;;;;;2.07;1.93;;;8.50;99.90;;;;;;5054155;28;20171;-68
2021/10/28 21:36:46;;;;;;;1.00;0.90;;;8.50;99.90;;;;;;5053707;28;20681;-68
2021/10/28 21:39:12;;;;;;;2.10;2.00;;;8.50;99.90;;;;;;5051864;28;20173;-68
2021/10/28 21:41:37;;;;;;;1.40;1.07;;;8.50;99.90;;;;;;5053771;28;20738;-69
2021/10/28 21:44:03;;;;;;;3.23;1.00;;;8.50;99.90;;;;;;5052705;28;20183;-68
2021/10/28 21:46:32;;;;;;;2.17;0.77;;;8.50;99.90;;;;;;5052000;28;20187;-67
2021/10/28 21:48:57;;;;;;;0.70;0.50;;;8.50;99.90;;;;;;5053819;28;20163;-69
2021/10/28 21:51:24;;;;;;;0.70;0.50;;;8.50;99.90;;;;;;5053529;28;20516;-68
2021/10/28 21:53:52;;;;;;;3.90;2.20;;;8.50;99.90;;;;;;5053203;28;20171;-69
2021/10/28 21:59:21;;;;;;;1.00;1.00;;;8.40;99.90;;;;;;5053909;28;20420;-68
2021/10/28 22:01:53;;;;;;;1.77;1.30;;;8.40;99.90;;;;;;5053089;28;20464;-68
2021/10/28 22:07:17;;;;;;;0.90;0.70;;;8.40;99.90;;;;;;5052887;28;20476;-67
2021/10/28 22:26:07;;;;;;;1.87;1.77;;;8.40;99.90;;;;;;5052906;28;20444;-67
2021/10/28 22:28:32;;;;;;;0.97;0.87;;;8.40;99.90;;;;;;5052781;28;20907;-67
2021/10/28 22:30:58;;;;;;;4.13;2.53;;;8.30;99.90;;;;;;5052752;28;20417;-67
2021/10/28 22:33:23;;;;;;;1.20;1.10;;;8.30;99.90;;;;;;5052713;28;20594;-68